createdAt,value
2017-12-17T00:01:24.935Z,12.47
2017-12-17T00:03:52.391Z,10.30
2017-12-17T00:06:19.801Z,11.80
2017-12-17T00:08:47.218Z,12.03
2017-12-17T00:11:14.643Z,17.73
2017-12-17T00:13:42.068Z,15.43
2017-12-17T00:16:09.472Z,9.70
2017-12-17T00:18:36.916Z,16.47
2017-12-17T00:21:04.378Z,12.57
2017-12-17T00:23:31.799Z,10.03
2017-12-17T00:25:59.214Z,12.37
2017-12-17T00:28:26.656Z,15.43
2017-12-17T00:30:54.060Z,12.50
2017-12-17T00:33:21.743Z,13.13
2017-12-17T00:35:49.231Z,12.00
2017-12-17T00:38:16.645Z,13.20
2017-12-17T00:40:44.148Z,17.10
2017-12-17T00:43:11.588Z,16.03
2017-12-17T00:45:38.996Z,15.13
2017-12-17T00:48:06.407Z,21.17
2017-12-17T00:50:33.852Z,16.83
2017-12-17T00:53:01.267Z,14.90
2017-12-17T00:55:28.676Z,9.77
2017-12-17T00:57:56.135Z,12.63
2017-12-17T01:00:23.552Z,20.13
2017-12-17T01:02:50.961Z,8.10
2017-12-17T01:05:18.401Z,11.40
2017-12-17T01:07:45.827Z,12.37
2017-12-17T01:10:13.267Z,16.23
2017-12-17T01:12:40.700Z,12.50
2017-12-17T01:15:08.107Z,13.03
2017-12-17T01:17:35.520Z,12.80
2017-12-17T01:20:02.979Z,16.10
2017-12-17T01:22:30.392Z,9.60
2017-12-17T01:24:57.812Z,11.47
2017-12-17T01:27:25.231Z,9.97
2017-12-17T01:29:52.642Z,9.97
2017-12-17T01:32:20.047Z,11.70
2017-12-17T01:34:47.492Z,12.20
2017-12-17T01:37:14.908Z,11.70
2017-12-17T01:39:42.324Z,11.43
2017-12-17T01:42:09.768Z,15.47
2017-12-17T01:44:37.183Z,10.20
2017-12-17T01:47:04.696Z,10.67
2017-12-17T01:49:32.145Z,8.90
2017-12-17T01:51:59.555Z,13.17
2017-12-17T01:54:26.959Z,8.80
2017-12-17T01:56:54.488Z,11.03
2017-12-17T01:59:21.887Z,7.97
2017-12-17T02:01:49.315Z,13.77
2017-12-17T02:04:16.764Z,9.80
2017-12-17T02:06:44.175Z,9.80
2017-12-17T02:09:11.583Z,9.73
2017-12-17T02:11:39.144Z,11.60
2017-12-17T02:14:06.548Z,8.40
2017-12-17T02:16:33.963Z,9.60
2017-12-17T02:19:01.392Z,11.93
2017-12-17T02:21:28.807Z,10.57
2017-12-17T02:23:56.219Z,11.40
2017-12-17T02:26:23.644Z,9.43
2017-12-17T02:28:51.055Z,10.50
2017-12-17T02:31:18.456Z,7.40
2017-12-17T02:33:45.948Z,9.83
2017-12-17T02:36:13.360Z,9.43
2017-12-17T02:38:40.855Z,8.10
2017-12-17T02:41:08.308Z,10.77
2017-12-17T02:43:35.780Z,9.00
2017-12-17T02:46:03.198Z,7.47
2017-12-17T02:48:30.695Z,7.63
2017-12-17T02:50:58.115Z,9.70
2017-12-17T02:53:25.519Z,6.13
2017-12-17T02:55:52.943Z,8.60
2017-12-17T02:58:20.352Z,7.80
2017-12-17T03:00:47.758Z,5.40
2017-12-17T03:03:15.203Z,7.20
2017-12-17T03:05:42.607Z,5.97
2017-12-17T03:08:10.006Z,6.17
2017-12-17T03:10:37.463Z,5.30
2017-12-17T03:13:04.872Z,4.67
2017-12-17T03:15:32.272Z,4.53
2017-12-17T03:17:59.715Z,4.93
2017-12-17T03:20:27.114Z,6.40
2017-12-17T03:22:54.675Z,6.17
2017-12-17T03:25:22.145Z,5.70
2017-12-17T03:27:49.609Z,6.23
2017-12-17T03:30:17.003Z,6.10
2017-12-17T03:32:44.450Z,8.00
2017-12-17T03:35:11.897Z,7.80
2017-12-17T03:37:39.296Z,8.67
2017-12-17T03:40:06.783Z,6.90
2017-12-17T03:42:34.192Z,5.77
2017-12-17T03:45:01.697Z,7.27
2017-12-17T03:47:29.263Z,7.30
2017-12-17T03:49:56.675Z,7.20
2017-12-17T03:52:24.079Z,6.40
2017-12-17T03:54:51.527Z,6.50
2017-12-17T03:57:19.073Z,9.97
2017-12-17T03:59:46.472Z,6.63
2017-12-17T04:02:13.908Z,8.50
2017-12-17T04:04:41.315Z,7.90
2017-12-17T04:07:08.812Z,7.00
2017-12-17T04:09:36.254Z,9.17
2017-12-17T04:12:03.656Z,8.27
2017-12-17T04:14:31.080Z,8.13
2017-12-17T04:16:58.511Z,8.73
2017-12-17T04:19:25.918Z,7.83
2017-12-17T04:21:53.324Z,8.80
2017-12-17T04:24:20.767Z,7.37
2017-12-17T04:26:48.175Z,6.67
2017-12-17T04:29:15.608Z,7.27
2017-12-17T04:31:43.036Z,4.33
2017-12-17T04:34:10.522Z,4.33
2017-12-17T04:36:37.911Z,4.33
2017-12-17T04:39:05.358Z,3.93
2017-12-17T04:41:32.792Z,3.60
2017-12-17T04:44:00.201Z,3.57
2017-12-17T04:46:27.646Z,3.80
2017-12-17T04:48:55.058Z,3.03
2017-12-17T04:51:22.459Z,3.57
2017-12-17T04:53:49.913Z,3.97
2017-12-17T04:56:17.335Z,3.47
2017-12-17T04:58:44.793Z,4.53
2017-12-17T05:01:12.354Z,5.00
2017-12-17T05:03:39.798Z,4.60
2017-12-17T05:06:07.191Z,4.67
2017-12-17T05:08:34.611Z,5.37
2017-12-17T05:11:02.023Z,5.30
2017-12-17T05:13:29.527Z,5.07
2017-12-17T05:15:56.985Z,6.00
2017-12-17T05:18:24.378Z,5.80
2017-12-17T05:20:51.811Z,5.37
2017-12-17T05:23:19.240Z,5.63
2017-12-17T05:25:46.722Z,5.13
2017-12-17T05:28:14.139Z,5.00
2017-12-17T05:30:41.581Z,5.80
2017-12-17T05:33:08.984Z,6.50
2017-12-17T05:35:36.440Z,5.33
2017-12-17T05:38:03.876Z,5.90
2017-12-17T05:40:31.364Z,6.13
2017-12-17T05:42:58.820Z,6.90
2017-12-17T05:45:26.283Z,5.97
2017-12-17T05:47:53.675Z,5.27
2017-12-17T05:50:21.088Z,6.17
2017-12-17T05:52:48.973Z,6.50
2017-12-17T05:55:16.379Z,7.13
2017-12-17T05:57:43.783Z,6.93
2017-12-17T06:00:11.324Z,7.30
2017-12-17T06:02:38.775Z,7.00
2017-12-17T06:05:06.175Z,5.77
2017-12-17T06:07:33.713Z,6.53
2017-12-17T06:10:01.093Z,7.13
2017-12-17T06:12:28.497Z,8.07
2017-12-17T06:14:55.940Z,7.43
2017-12-17T06:17:23.342Z,8.83
2017-12-17T06:19:50.751Z,7.77
2017-12-17T06:22:18.232Z,8.30
2017-12-17T06:24:45.696Z,8.43
2017-12-17T06:27:13.099Z,8.47
2017-12-17T06:29:40.527Z,8.03
2017-12-17T06:32:07.937Z,8.17
2017-12-17T06:34:35.342Z,8.00
2017-12-17T06:37:02.976Z,8.00
2017-12-17T06:39:30.387Z,9.13
2017-12-17T06:41:57.835Z,9.07
2017-12-17T06:44:25.255Z,7.73
2017-12-17T06:46:52.667Z,7.27
2017-12-17T06:49:20.095Z,7.73
2017-12-17T06:51:47.544Z,6.80
2017-12-17T06:54:14.963Z,7.07
2017-12-17T06:56:42.399Z,8.23
2017-12-17T06:59:09.805Z,7.57
2017-12-17T07:01:37.211Z,8.00
2017-12-17T07:04:04.651Z,8.70
2017-12-17T07:06:32.066Z,9.80
2017-12-17T07:08:59.480Z,9.00
2017-12-17T07:11:26.931Z,7.23
2017-12-17T07:13:54.345Z,10.57
2017-12-17T07:16:21.773Z,8.70
2017-12-17T07:18:49.248Z,7.37
2017-12-17T07:21:16.655Z,8.47
2017-12-17T07:23:44.076Z,9.20
2017-12-17T07:26:11.619Z,8.33
2017-12-17T07:28:39.031Z,8.10
2017-12-17T07:31:06.443Z,8.63
2017-12-17T07:33:33.876Z,8.17
2017-12-17T07:36:01.324Z,8.53
2017-12-17T07:38:28.733Z,7.10
2017-12-17T07:40:56.176Z,6.93
2017-12-17T07:43:23.586Z,7.80
2017-12-17T07:45:51.004Z,8.00
2017-12-17T07:48:18.627Z,7.93
2017-12-17T07:50:46.347Z,7.40
2017-12-17T07:53:13.744Z,8.37
2017-12-17T07:55:41.193Z,6.90
2017-12-17T07:58:08.663Z,7.90
2017-12-17T08:00:36.509Z,8.90
2017-12-17T08:03:03.980Z,8.20
2017-12-17T08:05:31.403Z,7.23
2017-12-17T08:07:58.818Z,8.60
2017-12-17T08:10:26.283Z,9.17
2017-12-17T08:12:53.690Z,9.00
2017-12-17T08:15:21.105Z,7.80
2017-12-17T08:20:22.438Z,7.70
2017-12-17T08:22:49.861Z,7.63
2017-12-17T08:25:17.277Z,8.57
2017-12-17T08:27:44.727Z,9.33
2017-12-17T08:30:12.132Z,9.60
2017-12-17T08:32:39.693Z,10.73
2017-12-17T08:35:07.052Z,8.13
2017-12-17T08:37:34.484Z,9.83
2017-12-17T08:40:01.892Z,9.90
2017-12-17T08:42:29.350Z,9.73
2017-12-17T08:44:56.875Z,10.93
2017-12-17T08:47:24.368Z,9.70
2017-12-17T08:49:51.922Z,8.87
2017-12-17T08:52:19.387Z,10.37
2017-12-17T08:54:46.801Z,9.20
2017-12-17T08:57:14.312Z,9.50
2017-12-17T08:59:41.747Z,11.47
2017-12-17T09:02:09.161Z,9.80
2017-12-17T09:04:36.620Z,10.37
2017-12-17T09:07:04.012Z,9.60
2017-12-17T09:09:31.435Z,10.40
2017-12-17T09:11:58.865Z,12.43
2017-12-17T09:14:26.271Z,15.87
2017-12-17T09:16:53.685Z,16.43
2017-12-17T09:19:21.132Z,10.10
2017-12-17T09:21:48.600Z,10.87
2017-12-17T09:24:16.012Z,8.47
2017-12-17T09:26:43.441Z,10.33
2017-12-17T09:29:10.855Z,9.30
2017-12-17T09:31:38.263Z,11.60
2017-12-17T09:34:05.746Z,10.47
2017-12-17T09:36:33.226Z,10.37
2017-12-17T09:39:00.661Z,10.87
2017-12-17T09:41:28.245Z,11.23
2017-12-17T09:43:55.653Z,10.60
2017-12-17T09:46:23.059Z,8.77
2017-12-17T09:48:50.525Z,9.90
2017-12-17T09:51:17.996Z,10.50
2017-12-17T09:53:45.404Z,10.43
2017-12-17T09:56:12.904Z,9.17
2017-12-17T09:58:40.315Z,9.43
2017-12-17T10:01:07.730Z,8.70
2017-12-17T10:03:35.264Z,10.63
2017-12-17T10:06:02.672Z,10.80
2017-12-17T10:08:30.079Z,10.10
2017-12-17T10:10:57.523Z,10.53
2017-12-17T10:13:24.991Z,10.93
2017-12-17T10:15:52.409Z,12.10
2017-12-17T10:18:19.883Z,10.00
2017-12-17T10:20:47.316Z,12.20
2017-12-17T10:23:14.753Z,11.20
2017-12-17T10:25:42.200Z,13.20
2017-12-17T10:28:09.632Z,10.23
2017-12-17T10:30:37.045Z,11.30
2017-12-17T10:33:04.484Z,10.40
2017-12-17T10:35:31.919Z,10.07
2017-12-17T10:37:59.352Z,10.80
2017-12-17T10:40:26.794Z,9.23
2017-12-17T10:42:54.203Z,9.87
2017-12-17T10:45:21.623Z,10.90
2017-12-17T10:47:49.067Z,11.30
2017-12-17T10:50:16.495Z,10.60
2017-12-17T10:52:43.930Z,12.37
2017-12-17T10:55:11.483Z,10.10
2017-12-17T10:57:38.893Z,10.43
2017-12-17T11:00:06.396Z,11.23
2017-12-17T11:02:33.869Z,9.50
2017-12-17T11:05:01.271Z,8.83
2017-12-17T11:07:28.723Z,9.20
2017-12-17T11:09:56.131Z,10.53
2017-12-17T11:12:23.584Z,9.80
2017-12-17T11:14:55.940Z,10.67
2017-12-17T11:17:23.400Z,9.40
2017-12-17T11:19:50.799Z,9.47
2017-12-17T11:22:18.232Z,10.83
2017-12-17T11:24:46.008Z,9.23
2017-12-17T11:27:13.416Z,9.77
2017-12-17T11:29:40.867Z,8.50
2017-12-17T11:32:08.372Z,8.83
2017-12-17T11:34:35.791Z,8.33
2017-12-17T11:37:03.228Z,8.93
2017-12-17T11:39:30.644Z,8.47
2017-12-17T11:41:58.061Z,9.13
2017-12-17T11:44:25.492Z,8.53
2017-12-17T11:46:52.895Z,7.20
2017-12-17T11:49:20.304Z,6.80
2017-12-17T11:51:47.757Z,7.77
2017-12-17T11:54:15.205Z,7.57
2017-12-17T11:56:42.621Z,7.87
2017-12-17T11:59:10.061Z,7.33
2017-12-17T12:01:37.469Z,6.57
2017-12-17T12:04:04.875Z,6.10
2017-12-17T12:06:32.383Z,6.90
2017-12-17T12:08:59.851Z,7.60
2017-12-17T12:11:27.319Z,6.60
2017-12-17T12:13:54.761Z,6.97
2017-12-17T12:16:22.173Z,8.50
2017-12-17T12:18:49.592Z,6.67
2017-12-17T12:21:17.025Z,7.70
2017-12-17T12:23:44.485Z,6.53
2017-12-17T12:26:11.891Z,7.83
2017-12-17T12:28:39.427Z,6.60
2017-12-17T12:31:06.846Z,7.17
2017-12-17T12:33:34.247Z,6.90
2017-12-17T12:36:01.676Z,10.00
2017-12-17T12:38:29.121Z,9.23
2017-12-17T12:40:56.528Z,12.30
2017-12-17T12:43:24.046Z,14.47
2017-12-17T12:45:51.506Z,9.50
2017-12-17T12:48:18.912Z,7.90
2017-12-17T12:50:46.323Z,6.70
2017-12-17T12:53:13.766Z,8.70
2017-12-17T12:55:41.183Z,7.73
2017-12-17T12:58:08.649Z,7.53
2017-12-17T13:00:36.119Z,7.70
2017-12-17T13:03:03.611Z,8.00
2017-12-17T13:05:31.024Z,8.30
2017-12-17T13:07:58.458Z,10.03
2017-12-17T13:10:25.879Z,9.10
2017-12-17T13:12:53.288Z,7.60
2017-12-17T13:15:20.812Z,6.77
2017-12-17T13:17:48.232Z,6.50
2017-12-17T13:20:15.710Z,6.90
2017-12-17T13:22:43.132Z,7.13
2017-12-17T13:25:10.543Z,8.60
2017-12-17T13:27:37.968Z,6.23
2017-12-17T13:30:05.450Z,6.53
2017-12-17T13:32:32.851Z,6.13
2017-12-17T13:35:00.375Z,7.20
2017-12-17T13:40:01.665Z,8.57
2017-12-17T13:42:29.066Z,6.90
2017-12-17T13:44:56.511Z,7.93
2017-12-17T13:47:23.997Z,6.90
2017-12-17T13:49:51.421Z,7.70
2017-12-17T13:52:18.826Z,4.20
2017-12-17T13:54:46.258Z,6.70
2017-12-17T13:57:13.687Z,6.80
2017-12-17T13:59:41.108Z,6.00
2017-12-17T14:02:08.562Z,5.60
2017-12-17T14:04:36.005Z,6.70
2017-12-17T14:07:03.408Z,6.20
2017-12-17T14:09:30.945Z,4.30
2017-12-17T14:11:58.359Z,3.60
2017-12-17T14:14:25.772Z,12.37
2017-12-17T14:16:53.412Z,6.13
2017-12-17T14:19:20.852Z,7.20
2017-12-17T14:21:48.258Z,7.10
2017-12-17T14:24:15.708Z,6.27
2017-12-17T14:26:43.955Z,4.60
2017-12-17T14:29:11.380Z,7.00
2017-12-17T14:31:38.815Z,5.17
2017-12-17T14:34:06.254Z,5.50
2017-12-17T14:36:33.697Z,4.50
2017-12-17T14:39:04.904Z,5.50
2017-12-17T14:41:32.399Z,5.77
2017-12-17T14:43:59.800Z,6.50
2017-12-17T14:46:27.247Z,6.70
2017-12-17T14:48:54.685Z,6.57
2017-12-17T14:51:22.150Z,6.50
2017-12-17T14:53:49.687Z,7.33
2017-12-17T14:56:17.177Z,5.53
2017-12-17T14:58:44.651Z,5.00
2017-12-17T15:01:12.175Z,8.40
2017-12-17T15:03:39.581Z,6.33
2017-12-17T15:06:07.324Z,6.23
2017-12-17T15:08:34.788Z,5.63
2017-12-17T15:11:02.225Z,4.30
2017-12-17T15:13:29.667Z,3.60
2017-12-17T15:15:57.091Z,3.70
2017-12-17T15:18:24.587Z,3.90
2017-12-17T15:20:52.041Z,5.07
2017-12-17T15:23:19.481Z,4.97
2017-12-17T15:25:46.895Z,5.20
2017-12-17T15:28:14.327Z,7.03
2017-12-17T15:30:41.772Z,5.90
2017-12-17T15:33:09.244Z,5.70
2017-12-17T15:35:36.685Z,6.47
2017-12-17T15:38:04.095Z,5.43
2017-12-17T15:40:31.521Z,4.17
2017-12-17T15:42:58.960Z,5.30
2017-12-17T15:45:26.388Z,5.30
2017-12-17T15:47:53.797Z,5.63
2017-12-17T15:50:21.268Z,6.17
2017-12-17T15:52:48.799Z,5.03
2017-12-17T15:55:16.199Z,6.30
2017-12-17T15:57:43.720Z,6.10
2017-12-17T16:00:11.130Z,7.40
2017-12-17T16:02:38.567Z,6.37
2017-12-17T16:05:06.200Z,5.83
2017-12-17T16:07:33.655Z,7.10
2017-12-17T16:10:01.096Z,6.63
2017-12-17T16:12:28.594Z,6.77
2017-12-17T16:14:56.006Z,7.87
2017-12-17T16:17:23.501Z,10.50
2017-12-17T16:19:51.019Z,7.77
2017-12-17T16:22:18.383Z,7.63
2017-12-17T16:24:46.161Z,6.60
2017-12-17T16:27:13.567Z,6.37
2017-12-17T16:29:40.988Z,6.97
2017-12-17T16:32:08.443Z,5.00
2017-12-17T16:34:35.847Z,5.40
2017-12-17T16:37:03.255Z,7.10
2017-12-17T16:39:30.719Z,6.53
2017-12-17T16:41:58.133Z,6.67
2017-12-17T16:44:25.551Z,6.70
2017-12-17T16:46:52.992Z,5.40
2017-12-17T16:49:20.408Z,6.00
2017-12-17T16:51:47.814Z,7.63
2017-12-17T16:54:15.346Z,5.27
2017-12-17T16:56:42.745Z,5.80
2017-12-17T16:59:10.169Z,5.67
2017-12-17T17:01:37.648Z,6.17
2017-12-17T17:04:05.044Z,5.70
2017-12-17T17:06:32.536Z,6.60
2017-12-17T17:09:00.193Z,7.13
2017-12-17T17:11:27.648Z,7.23
2017-12-17T17:13:55.119Z,6.17
2017-12-17T17:16:22.555Z,6.97
2017-12-17T17:18:50.090Z,6.60
2017-12-17T17:21:17.450Z,8.20
2017-12-17T17:23:44.968Z,5.60
2017-12-17T17:26:12.376Z,7.20
2017-12-17T17:28:39.788Z,6.80
2017-12-17T17:31:07.240Z,7.83
2017-12-17T17:33:34.655Z,9.10
2017-12-17T17:36:02.140Z,7.33
2017-12-17T17:38:29.600Z,7.07
2017-12-17T17:40:57.041Z,8.00
2017-12-17T17:43:24.439Z,7.77
2017-12-17T17:45:51.857Z,7.80
2017-12-17T17:48:19.295Z,11.00
2017-12-17T17:53:20.506Z,10.57
2017-12-17T17:55:47.918Z,32.87
2017-12-17T17:58:15.368Z,10.27
2017-12-17T18:00:42.781Z,7.60
2017-12-17T18:03:10.210Z,7.90
2017-12-17T18:05:37.629Z,7.50
2017-12-17T18:08:05.052Z,6.57
2017-12-17T18:10:32.525Z,5.13
2017-12-17T18:12:59.937Z,7.53
2017-12-17T18:15:27.382Z,6.40
2017-12-17T18:17:54.775Z,6.67
2017-12-17T18:20:22.263Z,6.60
2017-12-17T18:22:49.686Z,5.97
2017-12-17T18:25:17.083Z,4.80
2017-12-17T18:27:44.520Z,6.20
2017-12-17T18:30:11.968Z,7.07
2017-12-17T18:32:39.479Z,6.83
2017-12-17T18:35:06.905Z,8.27
2017-12-17T18:37:34.315Z,7.20
2017-12-17T18:40:01.745Z,8.20
2017-12-17T18:42:29.160Z,11.53
2017-12-17T18:44:56.675Z,10.73
2017-12-17T18:47:24.134Z,8.40
2017-12-17T18:49:51.561Z,9.37
2017-12-17T18:52:18.965Z,8.60
2017-12-17T18:54:46.415Z,8.17
2017-12-17T18:57:13.824Z,9.43
2017-12-17T18:59:41.232Z,11.37
2017-12-17T19:02:08.668Z,12.70
2017-12-17T19:04:36.081Z,7.53
2017-12-17T19:07:03.605Z,8.80
2017-12-17T19:09:31.019Z,7.30
2017-12-17T19:11:58.430Z,6.93
2017-12-17T19:14:25.879Z,6.80
2017-12-17T19:16:53.323Z,7.83
2017-12-17T19:19:20.730Z,7.80
2017-12-17T19:21:48.237Z,6.60
2017-12-17T19:24:15.635Z,5.43
2017-12-17T19:26:43.054Z,5.80
2017-12-17T19:29:10.501Z,5.43
2017-12-17T19:31:37.975Z,6.93
2017-12-17T19:34:05.382Z,6.73
2017-12-17T19:36:32.810Z,6.40
2017-12-17T19:39:00.257Z,5.83
2017-12-17T19:41:27.656Z,6.37
2017-12-17T19:43:55.079Z,6.63
2017-12-17T19:46:22.500Z,5.70
2017-12-17T19:48:49.962Z,9.10
2017-12-17T19:51:17.369Z,6.53
2017-12-17T19:53:44.815Z,5.90
2017-12-17T19:56:12.231Z,5.40
2017-12-17T19:58:39.628Z,6.80
2017-12-17T20:01:07.051Z,8.60
2017-12-17T20:03:34.459Z,6.33
2017-12-17T20:06:02.269Z,6.43
2017-12-17T20:08:29.772Z,8.30
2017-12-17T20:10:57.180Z,9.30
2017-12-17T20:13:24.760Z,10.53
2017-12-17T20:15:52.200Z,7.60
2017-12-17T20:18:19.670Z,8.73
2017-12-17T20:20:47.417Z,7.13
2017-12-17T20:23:15.078Z,8.33
2017-12-17T20:25:42.535Z,8.77
2017-12-17T20:28:09.943Z,10.70
2017-12-17T20:30:37.376Z,14.90
2017-12-17T20:33:04.785Z,9.50
2017-12-17T20:35:32.195Z,12.30
2017-12-17T20:37:59.657Z,10.63
2017-12-17T20:40:27.071Z,11.00
2017-12-17T20:42:54.483Z,8.53
2017-12-17T20:45:21.912Z,9.33
2017-12-17T20:47:49.316Z,9.10
2017-12-17T20:50:16.740Z,10.37
2017-12-17T20:52:44.200Z,11.50
2017-12-17T20:55:11.630Z,9.70
2017-12-17T20:57:39.035Z,9.53
2017-12-17T21:00:06.460Z,9.20
2017-12-17T21:02:33.878Z,9.47
2017-12-17T21:05:01.304Z,9.40
2017-12-17T21:07:28.712Z,7.80
2017-12-17T21:09:56.132Z,9.40
2017-12-17T21:12:23.546Z,6.67
2017-12-17T21:14:50.955Z,6.57
2017-12-17T21:17:18.368Z,6.30
2017-12-17T21:19:45.811Z,7.70
2017-12-17T21:22:13.229Z,11.67
2017-12-17T21:24:40.638Z,12.27
2017-12-17T21:27:08.067Z,9.20
2017-12-17T21:29:35.479Z,9.97
2017-12-17T21:32:02.884Z,17.77
2017-12-17T21:34:30.328Z,12.13
2017-12-17T21:36:57.795Z,10.30
2017-12-17T21:39:25.352Z,11.13
2017-12-17T21:41:52.760Z,15.23
2017-12-17T21:44:20.176Z,12.93
2017-12-17T21:46:47.628Z,10.03
2017-12-17T21:49:15.035Z,10.73
2017-12-17T21:51:42.447Z,7.50
2017-12-17T21:54:09.918Z,7.53
2017-12-17T21:56:37.331Z,12.00
2017-12-17T21:59:04.744Z,9.27
2017-12-17T22:01:32.171Z,10.27
2017-12-17T22:03:59.572Z,8.17
2017-12-17T22:06:26.995Z,5.97
2017-12-17T22:08:54.439Z,10.77
2017-12-17T22:11:21.852Z,6.23
2017-12-17T22:13:49.357Z,8.90
2017-12-17T22:16:16.801Z,6.23
2017-12-17T22:18:44.253Z,7.73
2017-12-17T22:21:11.727Z,7.20
2017-12-17T22:23:39.182Z,9.77
2017-12-17T22:26:06.593Z,8.83
2017-12-17T22:28:34.006Z,10.53
2017-12-17T22:31:01.455Z,13.93
2017-12-17T22:33:28.871Z,10.40
2017-12-17T22:35:56.455Z,9.50
2017-12-17T22:38:23.912Z,7.70
2017-12-17T22:40:51.376Z,6.37
2017-12-17T22:43:18.783Z,4.70
2017-12-17T22:45:46.195Z,4.57
2017-12-17T22:48:13.601Z,3.03
2017-12-17T22:50:41.116Z,4.67
2017-12-17T22:53:08.524Z,4.53
2017-12-17T22:55:35.931Z,5.50
2017-12-17T22:58:03.370Z,5.20
2017-12-17T23:00:30.762Z,5.70
2017-12-17T23:02:58.235Z,5.70
2017-12-17T23:05:25.660Z,9.30
2017-12-17T23:07:53.071Z,9.63
2017-12-17T23:10:20.483Z,17.80
2017-12-17T23:12:47.911Z,9.70
2017-12-17T23:15:15.396Z,8.33
2017-12-17T23:17:42.917Z,10.30
2017-12-17T23:20:10.330Z,8.37
2017-12-17T23:22:37.732Z,9.43
2017-12-17T23:25:05.170Z,9.00
2017-12-17T23:27:32.586Z,9.37
2017-12-17T23:30:00.012Z,9.67
2017-12-17T23:32:27.499Z,8.10
2017-12-17T23:34:54.911Z,8.70
2017-12-17T23:37:22.398Z,7.83
2017-12-17T23:39:49.870Z,8.87
2017-12-17T23:42:17.279Z,10.13
2017-12-17T23:44:44.685Z,8.60
2017-12-17T23:47:12.102Z,13.20
2017-12-17T23:49:39.688Z,7.80
2017-12-17T23:52:07.089Z,9.27
2017-12-17T23:54:34.523Z,6.83
2017-12-17T23:57:01.925Z,5.63
2017-12-17T23:59:29.334Z,6.73
